createdAt,value
2023-03-02T00:00:57.584Z,39.57
2023-03-02T00:04:57.779Z,39.35
2023-03-02T00:08:57.766Z,39.28
2023-03-02T00:12:57.852Z,39.22
2023-03-02T00:16:58.013Z,39.17
2023-03-02T00:20:58.171Z,39.07
2023-03-02T00:24:58.291Z,39.02
2023-03-02T00:28:58.330Z,38.88
2023-03-02T00:32:58.465Z,38.82
2023-03-02T00:36:58.482Z,38.69
2023-03-02T00:40:58.536Z,38.69
2023-03-02T00:44:58.615Z,38.48
2023-03-02T00:48:58.657Z,38.53
2023-03-02T00:52:58.669Z,38.37
2023-03-02T00:56:58.737Z,38.31
2023-03-02T01:00:58.808Z,38.25
2023-03-02T01:04:58.789Z,38.14
2023-03-02T01:08:58.836Z,38.13
2023-03-02T01:12:58.900Z,38.04
2023-03-02T01:16:58.884Z,37.97
2023-03-02T01:20:58.943Z,37.88
2023-03-02T01:24:58.961Z,37.81
2023-03-02T01:28:58.979Z,37.75
2023-03-02T01:32:59.014Z,37.69
2023-03-02T01:36:58.999Z,37.56
2023-03-02T01:40:58.942Z,37.56
2023-03-02T01:44:58.956Z,37.48
2023-03-02T01:48:58.942Z,37.40
2023-03-02T01:52:58.934Z,37.38
2023-03-02T01:56:59.004Z,37.25
2023-03-02T02:00:58.971Z,37.18
2023-03-02T02:04:58.922Z,37.16
2023-03-02T02:08:58.894Z,37.00
2023-03-02T02:12:58.868Z,36.94
2023-03-02T02:16:58.933Z,36.90
2023-03-02T02:20:58.855Z,36.85
2023-03-02T02:24:58.857Z,36.87
2023-03-02T02:28:58.905Z,36.76
2023-03-02T02:32:58.793Z,36.63
2023-03-02T02:36:58.778Z,36.61
2023-03-02T02:40:58.806Z,36.61
2023-03-02T02:44:58.875Z,36.51
2023-03-02T02:48:58.800Z,36.45
2023-03-02T02:52:58.770Z,36.35
2023-03-02T02:56:58.771Z,36.37
2023-03-02T03:00:58.875Z,36.23
2023-03-02T03:04:58.841Z,36.14
2023-03-02T03:08:58.858Z,36.10
2023-03-02T03:12:58.836Z,36.03
2023-03-02T03:16:58.936Z,36.00
2023-03-02T03:20:58.882Z,36.00
2023-03-02T03:24:58.902Z,35.99
2023-03-02T03:28:58.936Z,35.87
2023-03-02T03:32:58.960Z,35.83
2023-03-02T03:36:58.985Z,35.80
2023-03-02T03:40:58.999Z,35.78
2023-03-02T03:44:59.024Z,35.72
2023-03-02T03:48:59.051Z,35.58
2023-03-02T03:52:58.976Z,35.59
2023-03-02T03:56:58.984Z,35.55
2023-03-02T04:00:58.996Z,35.43
2023-03-02T04:04:58.955Z,35.44
2023-03-02T04:08:58.934Z,35.41
2023-03-02T04:12:58.943Z,35.37
2023-03-02T04:16:58.919Z,35.29
2023-03-02T04:20:58.924Z,35.27
2023-03-02T04:24:58.886Z,35.13
2023-03-02T04:28:58.882Z,35.12
2023-03-02T04:32:58.887Z,35.09
2023-03-02T04:36:58.865Z,35.02
2023-03-02T04:40:58.828Z,35.01
2023-03-02T04:44:58.860Z,34.94
2023-03-02T04:48:58.809Z,34.92
2023-03-02T04:52:58.878Z,34.88
2023-03-02T04:56:58.785Z,34.81
2023-03-02T05:00:58.742Z,34.77
2023-03-02T05:04:58.732Z,34.75
2023-03-02T05:08:58.681Z,34.68
2023-03-02T05:12:58.672Z,34.66
2023-03-02T05:16:58.698Z,34.67
2023-03-02T05:20:58.645Z,34.57
2023-03-02T05:24:58.666Z,34.48
2023-03-02T05:28:58.632Z,34.46
2023-03-02T05:32:58.637Z,34.38
2023-03-02T05:36:58.606Z,34.35
2023-03-02T05:40:58.602Z,34.32
2023-03-02T05:44:58.619Z,34.32
2023-03-02T05:48:58.582Z,34.27
2023-03-02T05:52:58.585Z,35.22
2023-03-02T05:56:58.555Z,35.44
2023-03-02T06:00:58.551Z,36.12
2023-03-02T06:04:58.531Z,37.66
2023-03-02T06:08:58.555Z,38.93
2023-03-02T06:12:58.495Z,39.62
2023-03-02T06:16:58.574Z,40.58
2023-03-02T06:20:58.479Z,41.95
2023-03-02T06:24:58.460Z,42.65
2023-03-02T06:28:58.876Z,42.68
2023-03-02T06:32:58.424Z,43.41
2023-03-02T06:36:58.468Z,43.18
2023-03-02T06:40:58.439Z,44.07
2023-03-02T06:44:58.595Z,44.06
2023-03-02T06:48:58.613Z,44.29
2023-03-02T06:52:58.662Z,44.26
2023-03-02T06:56:58.534Z,44.57
2023-03-02T07:00:59.140Z,44.37
2023-03-02T07:04:58.874Z,44.94
2023-03-02T07:08:59.113Z,45.86
2023-03-02T07:12:58.778Z,45.64
2023-03-02T07:16:58.800Z,45.96
2023-03-02T07:20:58.706Z,46.85
2023-03-02T07:24:58.674Z,47.23
2023-03-02T07:28:59.107Z,47.02
2023-03-02T07:32:58.613Z,46.59
2023-03-02T07:36:58.545Z,46.91
2023-03-02T07:40:58.630Z,47.30
2023-03-02T07:44:58.493Z,48.02
2023-03-02T07:48:58.511Z,47.75
2023-03-02T07:52:59.935Z,47.87
2023-03-02T07:56:59.147Z,47.79
2023-03-02T08:00:58.651Z,47.83
2023-03-02T08:04:58.634Z,47.76
2023-03-02T08:08:58.796Z,47.97
2023-03-02T08:12:58.730Z,48.15
2023-03-02T08:16:58.733Z,48.01
2023-03-02T08:20:58.694Z,48.41
2023-03-02T08:24:58.617Z,48.38
2023-03-02T08:28:58.607Z,48.89
2023-03-02T08:32:58.988Z,49.07
2023-03-02T08:36:58.555Z,49.28
2023-03-02T08:40:58.622Z,49.49
2023-03-02T08:44:58.688Z,49.40
2023-03-02T08:48:58.635Z,48.99
2023-03-02T08:52:58.411Z,47.42
2023-03-02T08:56:58.666Z,46.04
2023-03-02T09:00:58.726Z,45.32
2023-03-02T09:04:59.219Z,44.79
2023-03-02T09:08:58.934Z,43.89
2023-03-02T09:12:58.995Z,42.45
2023-03-02T09:16:59.178Z,39.76
2023-03-02T09:20:59.653Z,38.11
2023-03-02T09:24:59.333Z,36.06
2023-03-02T09:28:59.498Z,35.09
2023-03-02T09:32:59.609Z,35.80
2023-03-02T09:36:59.724Z,37.97
2023-03-02T09:40:59.683Z,37.31
2023-03-02T09:44:59.335Z,35.93
2023-03-02T09:48:59.688Z,35.51
2023-03-02T09:52:59.686Z,33.91
2023-03-02T09:56:59.669Z,35.90
2023-03-02T10:00:59.178Z,36.57
2023-03-02T10:04:59.151Z,36.99
2023-03-02T10:08:59.129Z,37.61
2023-03-02T10:12:59.137Z,38.17
2023-03-02T10:16:59.184Z,39.22
2023-03-02T10:20:59.312Z,39.31
2023-03-02T10:24:59.403Z,39.60
2023-03-02T10:28:59.752Z,40.47
2023-03-02T10:32:59.719Z,40.93
2023-03-02T10:36:59.443Z,41.46
2023-03-02T10:40:59.706Z,42.16
2023-03-02T10:44:59.720Z,42.29
2023-03-02T10:49:00.201Z,37.09
2023-03-02T10:53:01.556Z,39.81
2023-03-02T10:56:59.917Z,41.01
2023-03-02T11:00:59.918Z,41.56
2023-03-02T11:05:00.295Z,41.74
2023-03-02T11:08:59.791Z,41.52
2023-03-02T11:12:59.767Z,41.60
2023-03-02T11:17:01.376Z,41.93
2023-03-02T11:20:59.716Z,42.20
2023-03-02T11:24:59.638Z,42.35
2023-03-02T11:28:59.583Z,41.88
2023-03-02T11:32:59.684Z,41.66
2023-03-02T11:37:00.204Z,41.62
2023-03-02T11:41:00.235Z,41.98
2023-03-02T11:45:00.004Z,41.35
2023-03-02T11:49:00.212Z,41.38
2023-03-02T11:53:00.212Z,41.62
2023-03-02T11:57:00.689Z,41.91
2023-03-02T12:01:00.368Z,41.59
2023-03-02T12:05:00.428Z,41.72
2023-03-02T12:09:00.452Z,41.74
2023-03-02T12:13:00.718Z,41.68
2023-03-02T12:17:00.473Z,41.35
2023-03-02T12:21:00.413Z,41.44
2023-03-02T12:25:00.718Z,41.20
2023-03-02T12:29:00.705Z,41.75
2023-03-02T12:33:00.746Z,42.72
2023-03-02T12:37:00.434Z,43.54
2023-03-02T12:41:00.742Z,43.66
2023-03-02T12:45:00.785Z,43.52
2023-03-02T12:49:00.601Z,40.93
2023-03-02T12:53:00.766Z,42.88
2023-03-02T12:57:00.822Z,42.54
2023-03-02T13:01:01.020Z,42.54
2023-03-02T13:05:01.238Z,42.61
2023-03-02T13:09:01.410Z,42.67
2023-03-02T13:13:01.496Z,42.46
2023-03-02T13:17:01.821Z,42.05
2023-03-02T13:21:02.257Z,42.41
2023-03-02T13:25:01.939Z,41.87
2023-03-02T13:29:02.251Z,41.91
2023-03-02T13:33:02.756Z,41.00
2023-03-02T13:37:02.593Z,41.90
2023-03-02T13:41:02.799Z,41.20
2023-03-02T13:45:03.011Z,42.18
2023-03-02T13:49:10.113Z,42.03
2023-03-02T13:53:04.185Z,41.14
2023-03-02T13:57:03.142Z,41.69
2023-03-02T14:01:03.117Z,42.09
2023-03-02T14:05:03.194Z,41.93
2023-03-02T14:09:03.036Z,41.97
2023-03-02T14:13:03.034Z,42.06
2023-03-02T14:17:02.961Z,42.02
2023-03-02T14:21:03.314Z,42.29
2023-03-02T14:25:02.892Z,42.20
2023-03-02T14:29:05.811Z,42.49
2023-03-02T14:33:02.788Z,42.68
2023-03-02T14:37:02.798Z,42.11
2023-03-02T14:41:03.316Z,41.00
2023-03-02T14:45:02.749Z,40.72
2023-03-02T14:49:02.648Z,40.94
2023-03-02T14:57:21.806Z,39.68
2023-03-02T15:01:21.831Z,39.48
2023-03-02T15:05:21.716Z,39.19
2023-03-02T15:09:22.015Z,38.69
2023-03-02T15:13:22.006Z,37.99
2023-03-02T15:17:22.049Z,38.95
2023-03-02T15:21:21.549Z,39.15
2023-03-02T15:25:21.537Z,38.39
2023-03-02T15:29:21.495Z,38.21
2023-03-02T15:33:21.486Z,38.29
2023-03-02T15:37:21.433Z,38.79
2023-03-02T15:41:21.413Z,38.68
2023-03-02T15:45:21.353Z,38.61
2023-03-02T15:49:21.307Z,38.70
2023-03-02T15:53:21.314Z,38.47
2023-03-02T15:57:21.260Z,38.00
2023-03-02T16:01:21.232Z,37.72
2023-03-02T16:05:21.181Z,37.46
2023-03-02T16:09:21.132Z,37.02
2023-03-02T16:13:21.118Z,36.95
2023-03-02T16:17:21.058Z,36.46
2023-03-02T16:21:21.050Z,37.02
2023-03-02T16:25:21.011Z,37.50
2023-03-02T16:29:20.971Z,36.47
2023-03-02T16:33:20.922Z,36.22
2023-03-02T16:37:21.065Z,36.82
2023-03-02T16:41:21.052Z,36.88
2023-03-02T16:45:21.101Z,36.31
2023-03-02T16:49:21.206Z,36.61
2023-03-02T16:53:21.297Z,36.42
2023-03-02T16:57:21.374Z,37.37
2023-03-02T17:01:21.614Z,37.14
2023-03-02T17:05:21.695Z,36.50
2023-03-02T17:09:21.766Z,35.76
2023-03-02T17:13:21.916Z,35.60
2023-03-02T17:17:22.131Z,35.51
2023-03-02T17:21:22.307Z,35.27
2023-03-02T17:25:22.533Z,34.94
2023-03-02T17:29:22.536Z,35.00
2023-03-02T17:33:22.466Z,34.30
2023-03-02T17:37:22.445Z,34.11
2023-03-02T17:41:22.362Z,34.80
2023-03-02T17:45:22.350Z,33.77
2023-03-02T17:49:22.285Z,33.16
2023-03-02T17:53:22.258Z,33.18
2023-03-02T17:57:22.250Z,33.39
2023-03-02T18:01:22.180Z,33.28
2023-03-02T18:05:22.202Z,31.88
2023-03-02T18:09:22.215Z,31.00
2023-03-02T18:13:22.186Z,30.61
2023-03-02T18:17:22.258Z,29.93
2023-03-02T18:21:22.344Z,29.46
2023-03-02T18:25:22.478Z,29.14
2023-03-02T18:29:22.658Z,28.97
2023-03-02T18:33:22.759Z,28.78
2023-03-02T18:37:22.942Z,28.55
2023-03-02T18:41:23.157Z,28.55
2023-03-02T18:45:23.364Z,28.73
2023-03-02T18:49:23.323Z,28.61
2023-03-02T18:53:23.308Z,28.38
2023-03-02T18:57:23.280Z,28.39
2023-03-02T19:01:23.237Z,28.36
2023-03-02T19:05:24.106Z,28.47
2023-03-02T19:09:23.162Z,28.52
2023-03-02T19:13:23.110Z,28.45
2023-03-02T19:17:23.121Z,28.47
2023-03-02T19:21:23.066Z,28.56
2023-03-02T19:25:23.059Z,28.57
2023-03-02T19:29:23.013Z,28.55
2023-03-02T19:33:23.003Z,28.60
2023-03-02T19:37:22.931Z,28.56
2023-03-02T19:41:22.898Z,28.63
2023-03-02T19:45:22.902Z,28.73
2023-03-02T19:49:22.815Z,28.71
2023-03-02T19:53:22.769Z,28.88
2023-03-02T19:57:22.753Z,28.93
2023-03-02T20:01:22.750Z,28.65
2023-03-02T20:05:22.683Z,28.55
2023-03-02T20:09:22.636Z,28.53
2023-03-02T20:13:22.635Z,28.60
2023-03-02T20:17:22.754Z,28.64
2023-03-02T20:21:22.927Z,28.76
2023-03-02T20:25:23.029Z,28.69
2023-03-02T20:29:23.195Z,28.52
2023-03-02T20:33:23.290Z,28.67
2023-03-02T20:37:23.466Z,28.69
2023-03-02T20:41:23.614Z,28.85
2023-03-02T20:45:23.801Z,28.96
2023-03-02T20:49:24.002Z,29.05
2023-03-02T20:53:24.259Z,28.95
2023-03-02T20:57:24.213Z,28.96
2023-03-02T21:01:24.218Z,28.94
2023-03-02T21:05:24.091Z,28.88
2023-03-02T21:09:24.077Z,28.99
2023-03-02T21:13:24.041Z,28.97
2023-03-02T21:17:24.026Z,29.05
2023-03-02T21:21:32.624Z,29.07
2023-03-02T21:25:24.938Z,29.13
2023-03-02T21:29:23.872Z,29.07
2023-03-02T21:33:23.848Z,29.44
2023-03-02T21:37:23.833Z,29.65
2023-03-02T21:41:23.774Z,29.71
2023-03-02T21:45:23.760Z,29.67
2023-03-02T21:49:23.737Z,29.77
2023-03-02T21:53:23.701Z,29.89
2023-03-02T21:57:23.637Z,29.96
2023-03-02T22:01:23.630Z,30.17
2023-03-02T22:05:23.678Z,30.38
2023-03-02T22:09:23.736Z,30.22
2023-03-02T22:13:23.807Z,30.13
2023-03-02T22:17:24.839Z,29.89
2023-03-02T22:21:24.005Z,29.87
2023-03-02T22:25:24.076Z,30.05
2023-03-02T22:29:24.201Z,30.07
2023-03-02T22:33:24.284Z,30.11
2023-03-02T22:37:24.409Z,30.28
2023-03-02T22:41:24.584Z,30.38
2023-03-02T22:45:24.727Z,30.53
2023-03-02T22:49:24.866Z,30.67
2023-03-02T22:53:25.093Z,30.71
2023-03-02T22:57:25.285Z,30.67
2023-03-02T23:01:25.288Z,30.42
2023-03-02T23:05:25.278Z,29.92
2023-03-02T23:09:25.184Z,29.88
2023-03-02T23:13:27.279Z,30.08
2023-03-02T23:17:25.149Z,30.09
2023-03-02T23:21:26.218Z,30.24
2023-03-02T23:25:25.686Z,30.47
2023-03-02T23:29:25.242Z,30.55
2023-03-02T23:33:25.441Z,30.28
2023-03-02T23:37:25.621Z,29.96
2023-03-02T23:41:25.610Z,29.73
2023-03-02T23:45:25.530Z,29.54
2023-03-02T23:49:25.535Z,29.34
2023-03-02T23:53:25.487Z,29.06
2023-03-02T23:57:25.417Z,28.73
